Time;durP1;ratioP1;P1;durP2;ratioP2;P2;SDS_P1;SDS_P2;PMS_P1;PMS_P2;Temp;Humidity;BMP_temperature;BMP_pressure;BME280_temperature;BME280_humidity;BME280_pressure;Samples;Min_cycle;Max_cycle;Signal;HPM_P1;HPM_P2
2021/01/19 00:00:18;;;;;;;;;;;19.30;55.50;;;;;;5075133;28;1250;-68
2021/01/19 00:02:43;;;;;;;;;;;19.40;55.60;;;;;;5083794;28;1114;-68
2021/01/19 00:05:09;;;;;;;;;;;19.40;55.60;;;;;;5074870;28;1953;-68
2021/01/19 00:07:34;;;;;;;;;;;19.30;55.60;;;;;;5092997;28;744;-68
2021/01/19 00:10:00;;;;;;;;;;;19.30;55.60;;;;;;5072555;28;1222;-68
2021/01/19 00:12:25;;;;;;;;;;;19.30;55.60;;;;;;5072423;28;1063;-68
2021/01/19 00:14:51;;;;;;;;;;;19.30;55.60;;;;;;5074384;28;1372;-67
2021/01/19 00:17:17;;;;;;;;;;;19.30;55.60;;;;;;5076584;28;1256;-67
2021/01/19 00:19:42;;;;;;;;;;;19.30;55.60;;;;;;5063882;28;1295;-66
2021/01/19 00:22:08;;;;;;;;;;;19.30;55.70;;;;;;5096855;28;1262;-66
2021/01/19 00:24:33;;;;;;;;;;;19.30;55.60;;;;;;5096996;28;1894;-66
2021/01/19 00:26:58;;;;;;;;;;;19.30;55.70;;;;;;5087707;28;1131;-67
2021/01/19 00:29:24;;;;;;;;;;;19.30;55.70;;;;;;5076357;28;1402;-66
2021/01/19 00:31:49;;;;;;;;;;;19.30;55.70;;;;;;5076241;28;866;-66
2021/01/19 00:34:16;;;;;;;;;;;19.30;55.70;;;;;;5076002;28;1187;-67
2021/01/19 00:36:41;;;;;;;;;;;19.30;55.70;;;;;;5075985;28;1299;-67
2021/01/19 00:39:07;;;;;;;;;;;19.30;55.70;;;;;;5078404;28;1139;-67
2021/01/19 00:41:32;;;;;;;;;;;19.30;55.70;;;;;;5077940;28;1354;-67
2021/01/19 00:43:57;;;;;;;;;;;19.30;55.80;;;;;;5076617;28;1369;-67
2021/01/19 00:46:23;;;;;;;;;;;19.30;55.80;;;;;;5083858;28;1973;-67
2021/01/19 00:48:48;;;;;;;;;;;19.30;55.80;;;;;;5094981;28;1334;-67
2021/01/19 00:51:14;;;;;;;;;;;19.30;55.80;;;;;;5075800;28;1233;-67
2021/01/19 00:53:39;;;;;;;;;;;19.30;55.80;;;;;;5090341;28;1313;-66
2021/01/19 00:56:05;;;;;;;;;;;19.30;55.80;;;;;;5088089;28;1288;-66
2021/01/19 00:58:31;;;;;;;;;;;19.20;55.80;;;;;;5090099;28;1197;-66
2021/01/19 01:00:56;;;;;;;;;;;19.30;55.80;;;;;;5096029;28;1346;-66
2021/01/19 01:03:21;;;;;;;;;;;19.20;55.80;;;;;;5095769;28;1357;-65
2021/01/19 01:05:47;;;;;;;;;;;19.20;55.80;;;;;;5095765;28;1922;-66
2021/01/19 01:08:12;;;;;;;;;;;19.20;55.90;;;;;;5095824;28;1333;-66
2021/01/19 01:10:38;;;;;;;;;;;19.20;55.80;;;;;;5095994;28;1350;-66
2021/01/19 01:13:03;;;;;;;;;;;19.20;55.90;;;;;;5081198;28;1059;-67
2021/01/19 01:15:35;;;;;;;;;;;19.20;55.90;;;;;;5075498;28;958;-67
2021/01/19 01:18:01;;;;;;;;;;;19.20;55.90;;;;;;5043722;28;1236;-67
2021/01/19 01:20:26;;;;;;;;;;;19.20;55.90;;;;;;5057361;28;1227;-67
2021/01/19 01:22:52;;;;;;;;;;;19.20;55.90;;;;;;5075128;28;1064;-67
2021/01/19 01:25:17;;;;;;;;;;;19.20;55.90;;;;;;5064428;28;1898;-67
2021/01/19 01:27:43;;;;;;;;;;;19.20;55.90;;;;;;5076134;28;1279;-67
2021/01/19 01:30:09;;;;;;;;;;;19.20;55.90;;;;;;5092562;22;1969;-67
2021/01/19 01:32:45;;;;;;;;;;;19.20;55.90;;;;;;5064731;28;1212;-67
2021/01/19 01:35:10;;;;;;;;;;;19.20;55.90;;;;;;5073007;28;867;-66
2021/01/19 01:37:42;;;;;;;;;;;19.20;55.90;;;;;;5074297;28;1395;-67
2021/01/19 01:40:08;;;;;;;;;;;19.20;55.90;;;;;;5074543;28;1686;-67
2021/01/19 01:42:33;;;;;;;;;;;19.20;56.00;;;;;;5075162;28;1692;-66
2021/01/19 01:44:59;;;;;;;;;;;19.20;56.00;;;;;;5074743;28;1917;-67
2021/01/19 01:47:24;;;;;;;;;;;19.20;56.00;;;;;;5073609;28;1763;-67
2021/01/19 01:49:50;;;;;;;;;;;19.20;56.00;;;;;;5073661;28;1424;-67
2021/01/19 01:52:16;;;;;;;;;;;19.20;56.00;;;;;;5060428;28;1830;-66
2021/01/19 01:54:42;;;;;;;;;;;19.10;55.90;;;;;;5073990;28;1476;-66
2021/01/19 01:57:07;;;;;;;;;;;19.10;55.90;;;;;;5073867;28;1698;-66
2021/01/19 01:59:33;;;;;;;;;;;19.10;55.90;;;;;;5072817;28;1395;-67
2021/01/19 02:02:08;;;;;;;;;;;19.20;56.00;;;;;;5073776;28;1751;-67
2021/01/19 02:04:33;;;;;;;;;;;19.20;56.00;;;;;;5074381;28;1913;-67
2021/01/19 02:06:59;;;;;;;;;;;19.20;56.00;;;;;;5074290;28;1570;-67
2021/01/19 02:09:25;;;;;;;;;;;19.20;56.00;;;;;;5073306;28;1718;-67
2021/01/19 02:11:55;;;;;;;;;;;19.20;56.10;;;;;;5073304;28;1357;-67
2021/01/19 02:14:28;;;;;;;;;;;19.10;56.10;;;;;;5072943;28;1453;-67
2021/01/19 02:17:14;;;;;;;;;;;19.10;56.00;;;;;;5051834;28;1058;-67
2021/01/19 02:19:39;;;;;;;;;;;19.10;56.10;;;;;;5067180;28;1754;-67
2021/01/19 02:22:20;;;;;;;;;;;19.10;56.00;;;;;;5072669;28;1404;-67
2021/01/19 02:25:03;;;;;;;;;;;19.10;56.10;;;;;;5073883;28;1894;-66
2021/01/19 02:27:32;;;;;;;;;;;19.10;56.10;;;;;;5074112;28;1689;-66
2021/01/19 02:30:10;;;;;;;;;;;19.10;56.10;;;;;;5073733;28;1493;-66
2021/01/19 02:32:49;;;;;;;;;;;19.10;56.10;;;;;;5074114;28;1800;-66
2021/01/19 02:35:17;;;;;;;;;;;19.10;56.10;;;;;;5072488;28;1710;-66
2021/01/19 02:38:06;;;;;;;;;;;19.10;56.10;;;;;;5053942;28;1400;-66
2021/01/19 02:40:32;;;;;;;;;;;19.10;56.10;;;;;;5053695;28;1428;-66
2021/01/19 02:43:08;;;;;;;;;;;19.10;56.10;;;;;;5071885;28;1646;-66
2021/01/19 02:45:33;;;;;;;;;;;19.10;56.10;;;;;;5073013;28;1910;-66
2021/01/19 02:47:59;;;;;;;;;;;19.10;56.00;;;;;;5073829;28;1388;-66
2021/01/19 02:50:26;;;;;;;;;;;19.20;56.00;;;;;;5073910;28;1351;-66
2021/01/19 02:52:52;;;;;;;;;;;19.20;56.00;;;;;;5073583;28;1416;-66
2021/01/19 02:55:17;;;;;;;;;;;19.20;56.00;;;;;;5072390;28;1095;-66
2021/01/19 02:58:01;;;;;;;;;;;19.10;55.90;;;;;;5073456;28;1443;-66
2021/01/19 03:00:39;;;;;;;;;;;19.20;55.90;;;;;;5073447;28;1708;-66
2021/01/19 03:03:04;;;;;;;;;;;19.20;55.90;;;;;;5073632;28;1219;-66
2021/01/19 03:05:30;;;;;;;;;;;19.20;55.90;;;;;;5071912;28;1961;-66
2021/01/19 03:07:55;;;;;;;;;;;19.20;55.80;;;;;;5073351;28;891;-66
2021/01/19 03:10:21;;;;;;;;;;;19.20;55.80;;;;;;5072143;28;1364;-66
2021/01/19 03:12:46;;;;;;;;;;;19.20;55.80;;;;;;5072127;28;1732;-66
2021/01/19 03:15:13;;;;;;;;;;;19.20;55.80;;;;;;5071807;28;2058;-66
2021/01/19 03:17:41;;;;;;;;;;;19.20;55.80;;;;;;5073080;28;890;-66
2021/01/19 03:20:07;;;;;;;;;;;19.20;55.80;;;;;;5070773;28;1354;-66
2021/01/19 03:22:33;;;;;;;;;;;19.30;55.80;;;;;;5063016;28;1965;-67
2021/01/19 03:24:58;;;;;;;;;;;19.20;55.70;;;;;;5057665;28;1902;-66
2021/01/19 03:27:24;;;;;;;;;;;19.30;55.70;;;;;;5070829;28;1087;-67
2021/01/19 03:29:49;;;;;;;;;;;19.30;55.70;;;;;;5057824;28;1370;-66
2021/01/19 03:32:15;;;;;;;;;;;19.30;55.70;;;;;;5070546;28;958;-67
2021/01/19 03:34:40;;;;;;;;;;;19.30;55.70;;;;;;5057235;28;1185;-66
2021/01/19 03:37:06;;;;;;;;;;;19.30;55.70;;;;;;5071057;28;1193;-67
2021/01/19 03:39:31;;;;;;;;;;;19.30;55.60;;;;;;5072714;28;1290;-67
2021/01/19 03:41:57;;;;;;;;;;;19.30;55.60;;;;;;5072162;28;1654;-67
2021/01/19 03:44:23;;;;;;;;;;;19.30;55.60;;;;;;5068395;28;1901;-67
2021/01/19 03:46:48;;;;;;;;;;;19.30;55.60;;;;;;5069051;28;1124;-66
2021/01/19 03:49:14;;;;;;;;;;;19.30;55.60;;;;;;5074358;28;1383;-66
2021/01/19 03:51:39;;;;;;;;;;;19.30;55.60;;;;;;5079564;28;1548;-66
2021/01/19 03:54:05;;;;;;;;;;;19.30;55.60;;;;;;5078290;28;1437;-67
2021/01/19 03:56:30;;;;;;;;;;;19.30;55.60;;;;;;5079499;28;1365;-67
2021/01/19 03:58:55;;;;;;;;;;;19.30;55.60;;;;;;5079384;28;1146;-66
2021/01/19 04:01:21;;;;;;;;;;;19.30;55.60;;;;;;5079262;28;1201;-66
2021/01/19 04:03:46;;;;;;;;;;;19.30;55.50;;;;;;5078222;28;1310;-66
2021/01/19 04:06:12;;;;;;;;;;;19.30;55.60;;;;;;5079156;28;1902;-66
2021/01/19 04:08:37;;;;;;;;;;;19.30;55.60;;;;;;5079468;28;1147;-66
2021/01/19 04:11:03;;;;;;;;;;;19.30;55.60;;;;;;5078070;28;1186;-67
2021/01/19 04:13:29;;;;;;;;;;;19.30;55.60;;;;;;5079073;28;1384;-66
2021/01/19 04:15:55;;;;;;;;;;;19.30;55.60;;;;;;5079326;28;1411;-66
2021/01/19 04:18:21;;;;;;;;;;;19.30;55.60;;;;;;5079084;28;1219;-66
2021/01/19 04:20:46;;;;;;;;;;;19.30;55.50;;;;;;5078109;28;1282;-66
2021/01/19 04:23:14;;;;;;;;;;;19.30;55.50;;;;;;5079110;28;1127;-66
2021/01/19 04:25:45;;;;;;;;;;;19.30;55.60;;;;;;5078972;28;1965;-67
2021/01/19 04:28:11;;;;;;;;;;;19.30;55.50;;;;;;5077742;28;1175;-66
2021/01/19 04:30:37;;;;;;;;;;;19.30;55.60;;;;;;5077697;28;1296;-66
2021/01/19 04:33:03;;;;;;;;;;;19.30;55.50;;;;;;5078933;28;1102;-66
2021/01/19 04:35:28;;;;;;;;;;;19.30;55.50;;;;;;5079072;28;1321;-66
2021/01/19 04:37:54;;;;;;;;;;;19.30;55.50;;;;;;5078924;28;1325;-66
2021/01/19 04:40:19;;;;;;;;;;;19.30;56.10;;;;;;5079211;28;1278;-66
2021/01/19 04:42:45;;;;;;;;;;;19.30;55.50;;;;;;5078967;28;1139;-66
2021/01/19 04:45:10;;;;;;;;;;;19.30;55.50;;;;;;5078785;28;1914;-66
2021/01/19 04:47:36;;;;;;;;;;;19.30;55.50;;;;;;5078596;28;1149;-67
2021/01/19 04:50:03;;;;;;;;;;;19.30;55.50;;;;;;5077625;28;1369;-67
2021/01/19 04:52:29;;;;;;;;;;;19.30;55.50;;;;;;5078975;28;1205;-67
2021/01/19 04:55:05;;;;;;;;;;;19.30;55.50;;;;;;5078725;28;1298;-66
2021/01/19 04:57:31;;;;;;;;;;;19.30;55.50;;;;;;5078695;28;1376;-66
2021/01/19 05:00:15;;;;;;;;;;;19.30;55.50;;;;;;5078832;28;1264;-67
2021/01/19 05:03:03;;;;;;;;;;;19.30;55.50;;;;;;5074291;28;1304;-66
2021/01/19 05:05:37;;;;;;;;;;;19.30;55.50;;;;;;5075395;28;1960;-66
2021/01/19 05:08:15;;;;;;;;;;;19.30;55.50;;;;;;5075543;28;1285;-67
2021/01/19 05:10:41;;;;;;;;;;;19.30;55.50;;;;;;5074223;28;1346;-66
2021/01/19 05:13:10;;;;;;;;;;;19.30;55.50;;;;;;5075557;28;1349;-66
2021/01/19 05:15:45;;;;;;;;;;;19.30;55.50;;;;;;5074271;28;1323;-66
2021/01/19 05:18:11;;;;;;;;;;;19.30;55.50;;;;;;5074263;28;1126;-66
2021/01/19 05:20:42;;;;;;;;;;;19.30;55.50;;;;;;5074143;28;1384;-67
2021/01/19 05:23:08;;;;;;;;;;;19.40;55.60;;;;;;5074140;28;1386;-66
2021/01/19 05:25:33;;;;;;;;;;;19.30;55.50;;;;;;5075205;28;1957;-66
2021/01/19 05:27:59;;;;;;;;;;;19.30;55.50;;;;;;5075252;28;1147;-67
2021/01/19 05:30:24;;;;;;;;;;;19.30;55.50;;;;;;5074031;28;1305;-66
2021/01/19 05:32:50;;;;;;;;;;;19.30;55.50;;;;;;5075188;28;1407;-66
2021/01/19 05:35:19;;;;;;;;;;;19.30;55.50;;;;;;5074912;28;1263;-66
2021/01/19 05:37:54;;;;;;;;;;;19.30;55.50;;;;;;5075072;28;1103;-66
2021/01/19 05:40:20;;;;;;;;;;;19.30;55.50;;;;;;5075166;28;1283;-66
2021/01/19 05:42:45;;;;;;;;;;;19.30;55.50;;;;;;5073688;28;1131;-66
2021/01/19 05:45:11;;;;;;;;;;;19.30;55.50;;;;;;5074974;28;1902;-66
2021/01/19 05:47:36;;;;;;;;;;;19.30;55.50;;;;;;5074634;28;1466;-67
2021/01/19 05:50:02;;;;;;;;;;;19.30;55.50;;;;;;5073497;28;1352;-66
2021/01/19 05:52:31;;;;;;;;;;;19.30;55.50;;;;;;5074762;28;1197;-66
2021/01/19 05:54:58;;;;;;;;;;;19.30;55.50;;;;;;5074411;28;1063;-66
2021/01/19 05:57:23;;;;;;;;;;;19.30;55.50;;;;;;5073496;28;1205;-66
2021/01/19 05:59:56;;;;;;;;;;;19.30;55.50;;;;;;5073502;28;1306;-67
2021/01/19 06:02:22;;;;;;;;;;;19.30;55.50;;;;;;5074461;28;1322;-67
2021/01/19 06:04:48;;;;;;;;;;;19.30;55.40;;;;;;5074177;28;1943;-66
2021/01/19 06:07:15;;;;;;;;;;;19.40;55.50;;;;;;5073128;28;1444;-66
2021/01/19 06:09:41;;;;;;;;;;;19.30;55.40;;;;;;5074371;28;1343;-66
2021/01/19 06:12:06;;;;;;;;;;;19.30;55.50;;;;;;5072996;28;1190;-66
2021/01/19 06:14:32;;;;;;;;;;;19.40;55.50;;;;;;5074089;28;1189;-66
2021/01/19 06:17:09;;;;;;;;;;;19.30;55.40;;;;;;5073970;28;1202;-67
2021/01/19 06:19:35;;;;;;;;;;;19.40;55.50;;;;;;5074224;28;1289;-66
2021/01/19 06:22:04;;;;;;;;;;;19.40;55.50;;;;;;5074207;28;1374;-66
2021/01/19 06:24:30;;;;;;;;;;;19.30;55.50;;;;;;5072704;28;1897;-66
2021/01/19 06:26:56;;;;;;;;;;;19.40;55.50;;;;;;5073997;28;1170;-66
2021/01/19 06:29:24;;;;;;;;;;;19.40;55.50;;;;;;5073835;28;1091;-66
2021/01/19 06:31:50;;;;;;;;;;;19.30;55.40;;;;;;5072772;28;1298;-66
2021/01/19 06:34:23;;;;;;;;;;;19.30;55.50;;;;;;5072519;28;1256;-67
2021/01/19 06:36:48;;;;;;;;;;;19.40;55.50;;;;;;5074086;28;1313;-66
2021/01/19 06:39:21;;;;;;;;;;;19.30;55.50;;;;;;5073727;28;1179;-66
2021/01/19 06:41:47;;;;;;;;;;;19.40;55.50;;;;;;5073823;28;1297;-67
2021/01/19 06:44:12;;;;;;;;;;;19.40;55.50;;;;;;5072053;28;1330;-66
2021/01/19 06:46:38;;;;;;;;;;;19.40;55.50;;;;;;5072402;28;1361;-66
2021/01/19 06:49:03;;;;;;;;;;;19.40;55.50;;;;;;5072338;28;1392;-66
2021/01/19 06:51:29;;;;;;;;;;;19.30;55.50;;;;;;5072262;28;1348;-66
2021/01/19 06:54:00;;;;;;;;;;;19.30;55.50;;;;;;5072091;28;1259;-66
2021/01/19 06:56:30;;;;;;;;;;;19.30;55.40;;;;;;5072234;28;1416;-66
2021/01/19 06:58:56;;;;;;;;;;;19.30;55.40;;;;;;5073563;28;1122;-66
2021/01/19 07:01:25;;;;;;;;;;;19.30;55.50;;;;;;5073406;28;1335;-67
2021/01/19 07:04:10;;;;;;;;;;;19.30;55.50;;;;;;5071924;28;1202;-66
2021/01/19 07:06:48;;;;;;;;;;;19.30;55.50;;;;;;5073115;28;1906;-66
2021/01/19 07:09:32;;;;;;;;;;;19.30;55.50;;;;;;5072248;28;1334;-67
2021/01/19 07:12:01;;;;;;;;;;;19.30;55.50;;;;;;5073250;28;1310;-66
2021/01/19 07:14:35;;;;;;;;;;;19.40;55.50;;;;;;5072220;28;1214;-67
2021/01/19 07:17:05;;;;;;;;;;;19.40;55.50;;;;;;5072038;28;1317;-66
2021/01/19 07:19:50;;;;;;;;;;;19.30;55.50;;;;;;5071832;28;1075;-67
2021/01/19 07:22:24;;;;;;;;;;;19.40;55.50;;;;;;5072955;28;1381;-66
2021/01/19 07:24:50;;;;;;;;;;;19.30;55.50;;;;;;5071098;28;1894;-66
2021/01/19 07:27:18;;;;;;;;;;;19.30;55.50;;;;;;5073011;28;1102;-66
2021/01/19 07:29:43;;;;;;;;;;;19.40;55.50;;;;;;5062683;28;1347;-66
2021/01/19 07:32:12;;;;;;;;;;;19.30;55.50;;;;;;5092053;22;3845;-65
2021/01/19 07:34:38;;;;;;;;;;;19.30;55.50;;;;;;5086111;28;1190;-66
2021/01/19 07:37:04;;;;;;;;;;;19.30;55.50;;;;;;5110915;28;1982;-65
2021/01/19 07:39:33;;;;;;;;;;;19.30;55.50;;;;;;5083596;28;901;-65
2021/01/19 07:42:14;;;;;;;;;;;19.30;55.50;;;;;;5092151;28;1401;-66
2021/01/19 07:44:42;;;;;;;;;;;19.30;55.50;;;;;;5091011;28;2000;-67
2021/01/19 07:47:14;;;;;;;;;;;19.30;55.50;;;;;;5091029;28;1391;-65
2021/01/19 07:49:39;;;;;;;;;;;19.30;55.50;;;;;;5091949;28;1273;-64
2021/01/19 07:52:12;;;;;;;;;;;19.30;55.50;;;;;;5091899;28;1332;-66
2021/01/19 07:54:37;;;;;;;;;;;19.30;55.50;;;;;;5090387;28;1332;-67
2021/01/19 07:57:08;;;;;;;;;;;19.30;55.50;;;;;;5086386;28;1070;-66
2021/01/19 07:59:34;;;;;;;;;;;19.30;55.50;;;;;;5091086;28;1289;-67
2021/01/19 08:01:59;;;;;;;;;;;19.40;55.40;;;;;;5092334;28;1480;-67
2021/01/19 08:04:28;;;;;;;;;;;19.40;55.30;;;;;;5092307;28;1952;-64
2021/01/19 08:06:54;;;;;;;;;;;19.40;55.20;;;;;;5092039;28;1308;-67
2021/01/19 08:09:20;;;;;;;;;;;19.50;55.20;;;;;;5092009;28;1455;-66
2021/01/19 08:11:45;;;;;;;;;;;19.50;55.10;;;;;;5092219;28;1331;-66
2021/01/19 08:14:11;;;;;;;;;;;19.50;55.00;;;;;;5091986;28;1130;-66
2021/01/19 08:16:37;;;;;;;;;;;19.60;54.90;;;;;;5092534;28;1313;-66
2021/01/19 08:19:12;;;;;;;;;;;19.60;54.90;;;;;;5092428;28;1254;-66
2021/01/19 08:21:47;;;;;;;;;;;19.60;54.80;;;;;;5092552;28;1312;-65
2021/01/19 08:24:13;;;;;;;;;;;19.60;54.80;;;;;;5089729;28;1359;-66
2021/01/19 08:26:38;;;;;;;;;;;19.60;54.70;;;;;;5091926;28;1898;-66
2021/01/19 08:29:04;;;;;;;;;;;19.60;54.70;;;;;;5070868;28;1514;-66
2021/01/19 08:31:30;;;;;;;;;;;19.60;54.70;;;;;;5090092;28;1286;-66
2021/01/19 08:33:59;;;;;;;;;;;19.60;54.70;;;;;;5090612;28;1364;-66
2021/01/19 08:36:26;;;;;;;;;;;19.60;54.60;;;;;;5091668;28;1536;-67
2021/01/19 08:38:51;;;;;;;;;;;19.70;54.70;;;;;;5094818;28;1166;-66
2021/01/19 08:41:17;;;;;;;;;;;19.60;54.70;;;;;;5094763;28;1254;-66
2021/01/19 08:44:01;;;;;;;;;;;19.60;54.70;;;;;;5095571;28;1257;-66
2021/01/19 08:46:28;;;;;;;;;;;19.70;54.70;;;;;;5095414;28;1910;-66
2021/01/19 08:48:58;;;;;;;;;;;19.70;54.70;;;;;;5094528;28;1356;-66
2021/01/19 08:51:24;;;;;;;;;;;19.70;54.70;;;;;;5095210;28;1225;-66
2021/01/19 08:53:50;;;;;;;;;;;19.70;54.70;;;;;;5094190;28;1353;-66
2021/01/19 08:56:16;;;;;;;;;;;19.60;54.70;;;;;;5093793;28;980;-66
2021/01/19 08:58:42;;;;;;;;;;;19.60;54.70;;;;;;5096464;28;1232;-66
2021/01/19 09:01:07;;;;;;;;;;;19.60;54.70;;;;;;5095310;28;1411;-66
2021/01/19 09:03:33;;;;;;;;;;;19.70;55.30;;;;;;5095518;28;1403;-66
2021/01/19 09:06:01;;;;;;;;;;;19.60;54.70;;;;;;5094693;28;1898;-65
2021/01/19 09:08:28;;;;;;;;;;;19.70;54.80;;;;;;5094467;28;1286;-65
2021/01/19 09:11:00;;;;;;;;;;;19.60;54.70;;;;;;5095348;28;1337;-66
2021/01/19 09:13:26;;;;;;;;;;;19.60;54.70;;;;;;5095241;28;1297;-66
2021/01/19 09:15:51;;;;;;;;;;;19.60;54.80;;;;;;5095407;28;1288;-66
2021/01/19 09:18:18;;;;;;;;;;;19.60;54.80;;;;;;5093825;28;1319;-66
2021/01/19 09:20:43;;;;;;;;;;;19.60;54.80;;;;;;5094783;28;1296;-66
2021/01/19 09:23:15;;;;;;;;;;;19.60;54.80;;;;;;5095383;28;1313;-66
2021/01/19 09:25:42;;;;;;;;;;;19.60;54.80;;;;;;5093769;28;1902;-66
2021/01/19 09:28:07;;;;;;;;;;;19.60;54.90;;;;;;5094770;28;1392;-66
2021/01/19 09:30:36;;;;;;;;;;;19.60;54.90;;;;;;5094595;28;1403;-66
2021/01/19 09:33:09;;;;;;;;;;;19.60;54.90;;;;;;5093676;28;1336;-66
2021/01/19 09:35:34;;;;;;;;;;;19.60;54.90;;;;;;5092885;28;1310;-66
2021/01/19 09:38:00;;;;;;;;;;;19.60;54.90;;;;;;5093242;28;1309;-66
2021/01/19 09:40:32;;;;;;;;;;;19.60;54.90;;;;;;5094702;28;1314;-66
2021/01/19 09:42:58;;;;;;;;;;;19.60;55.00;;;;;;5092293;28;1921;-66
2021/01/19 09:45:23;;;;;;;;;;;19.60;53.80;;;;;;5074986;28;1976;-66
2021/01/19 09:47:49;;;;;;;;;;;19.50;50.60;;;;;;5093874;28;1121;-67
2021/01/19 09:50:14;;;;;;;;;;;19.50;51.70;;;;;;5094126;28;1669;-67
2021/01/19 09:52:46;;;;;;;;;;;19.50;51.70;;;;;;5094044;28;1278;-66
2021/01/19 09:55:12;;;;;;;;;;;19.40;49.20;;;;;;5082085;28;1245;-66
2021/01/19 09:57:37;;;;;;;;;;;19.40;47.70;;;;;;5093956;28;1082;-66
2021/01/19 10:00:04;;;;;;;;;;;19.30;47.20;;;;;;5094604;28;1083;-67
2021/01/19 10:02:30;;;;;;;;;;;19.30;46.20;;;;;;5094686;28;1253;-66
2021/01/19 10:05:01;;;;;;;;;;;19.30;45.80;;;;;;5083337;28;1951;-67
2021/01/19 10:07:27;;;;;;;;;;;19.30;46.00;;;;;;5094304;28;1392;-67
2021/01/19 10:09:53;;;;;;;;;;;19.20;47.80;;;;;;5094258;28;1332;-67
2021/01/19 10:12:19;;;;;;;;;;;19.30;47.70;;;;;;5094173;28;1287;-67
2021/01/19 10:14:44;;;;;;;;;;;19.30;47.40;;;;;;5088130;28;1145;-67
2021/01/19 10:17:10;;;;;;;;;;;19.30;46.70;;;;;;5094203;28;1287;-67
2021/01/19 10:19:36;;;;;;;;;;;19.40;46.40;;;;;;5094018;28;1297;-66
2021/01/19 10:22:05;;;;;;;;;;;19.50;46.40;;;;;;5094129;28;1266;-67
2021/01/19 10:24:31;;;;;;;;;;;19.50;45.60;;;;;;5093912;28;1963;-67
2021/01/19 10:27:00;;;;;;;;;;;19.70;45.50;;;;;;5091946;28;1246;-66
2021/01/19 10:29:26;;;;;;;;;;;19.70;45.50;;;;;;5075287;28;1353;-66
2021/01/19 10:31:58;;;;;;;;;;;19.90;45.70;;;;;;5093767;28;1291;-67
2021/01/19 10:34:24;;;;;;;;;;;20.00;45.80;;;;;;5093256;28;1114;-66
2021/01/19 10:36:53;;;;;;;;;;;20.10;45.90;;;;;;5093614;28;1256;-67
2021/01/19 10:39:20;;;;;;;;;;;20.20;46.10;;;;;;5093156;28;1249;-67
2021/01/19 10:41:45;;;;;;;;;;;20.30;46.20;;;;;;5092175;28;1341;-66
2021/01/19 10:44:11;;;;;;;;;;;20.40;46.30;;;;;;5093664;28;1291;-67
2021/01/19 10:46:37;;;;;;;;;;;20.50;46.50;;;;;;5093189;28;1914;-67
2021/01/19 10:49:15;;;;;;;;;;;20.50;46.60;;;;;;5092982;28;1337;-67
2021/01/19 10:51:46;;;;;;;;;;;20.60;46.70;;;;;;5080765;28;1245;-67
2021/01/19 10:54:12;;;;;;;;;;;20.60;46.80;;;;;;5090044;28;1335;-67
2021/01/19 10:56:38;;;;;;;;;;;20.70;46.90;;;;;;5091933;28;1360;-67
2021/01/19 10:59:04;;;;;;;;;;;20.70;47.00;;;;;;5090681;28;1325;-68
2021/01/19 11:01:30;;;;;;;;;;;20.80;47.10;;;;;;5093142;28;1285;-68
2021/01/19 11:03:56;;;;;;;;;;;20.80;47.20;;;;;;5092862;28;1317;-67
2021/01/19 11:06:21;;;;;;;;;;;20.80;47.30;;;;;;5092519;28;1976;-68
2021/01/19 11:08:47;;;;;;;;;;;20.80;47.30;;;;;;5092322;28;1249;-67
2021/01/19 11:11:12;;;;;;;;;;;20.90;47.40;;;;;;5092799;28;1316;-67
2021/01/19 11:13:38;;;;;;;;;;;20.90;47.40;;;;;;5092952;28;1293;-68
2021/01/19 11:16:04;;;;;;;;;;;20.90;47.50;;;;;;5091168;28;1320;-68
2021/01/19 11:18:29;;;;;;;;;;;21.00;48.20;;;;;;5091610;28;1441;-68
2021/01/19 11:20:55;;;;;;;;;;;21.00;47.60;;;;;;5093544;28;1308;-67
2021/01/19 11:23:20;;;;;;;;;;;21.10;47.70;;;;;;5092361;28;1426;-68
2021/01/19 11:25:46;;;;;;;;;;;21.10;47.70;;;;;;5092665;28;1922;-67
2021/01/19 11:28:13;;;;;;;;;;;21.10;47.90;;;;;;5092245;28;1329;-67
2021/01/19 11:30:38;;;;;;;;;;;21.10;47.90;;;;;;5092893;28;1304;-67
2021/01/19 11:33:04;;;;;;;;;;;21.10;48.00;;;;;;5092426;28;1269;-67
2021/01/19 11:35:31;;;;;;;;;;;21.10;48.10;;;;;;5092443;28;1334;-67
2021/01/19 11:37:57;;;;;;;;;;;21.10;48.10;;;;;;5092046;28;1340;-68
2021/01/19 11:40:22;;;;;;;;;;;21.10;48.20;;;;;;5092237;28;1304;-67
2021/01/19 11:42:48;;;;;;;;;;;21.10;48.30;;;;;;5092508;28;1546;-67
2021/01/19 11:45:13;;;;;;;;;;;21.10;48.30;;;;;;5092204;28;1967;-68
2021/01/19 11:47:39;;;;;;;;;;;21.10;48.30;;;;;;5092290;28;1367;-67
2021/01/19 11:50:05;;;;;;;;;;;21.10;48.30;;;;;;5092706;28;1282;-67
2021/01/19 11:52:30;;;;;;;;;;;21.10;48.40;;;;;;5092220;28;1333;-67
2021/01/19 11:54:56;;;;;;;;;;;21.10;48.50;;;;;;5092204;28;1294;-68
2021/01/19 11:57:22;;;;;;;;;;;21.10;48.50;;;;;;5092333;28;1307;-68
2021/01/19 11:59:47;;;;;;;;;;;21.10;48.50;;;;;;5077969;28;949;-68
2021/01/19 12:02:13;;;;;;;;;;;21.10;48.50;;;;;;5088550;28;1259;-67
2021/01/19 12:04:38;;;;;;;;;;;21.20;48.60;;;;;;5090985;28;1955;-67
2021/01/19 12:07:05;;;;;;;;;;;21.20;48.60;;;;;;5090506;28;1279;-68
2021/01/19 12:09:31;;;;;;;;;;;21.20;48.70;;;;;;5091343;28;1296;-67
2021/01/19 12:11:56;;;;;;;;;;;21.20;48.80;;;;;;5095384;28;1316;-68
2021/01/19 12:14:22;;;;;;;;;;;21.20;48.80;;;;;;5090129;28;1177;-67
2021/01/19 12:16:52;;;;;;;;;;;21.10;48.90;;;;;;5094705;28;1340;-67
2021/01/19 12:19:17;;;;;;;;;;;21.10;48.90;;;;;;5095529;28;1254;-66
2021/01/19 12:21:49;;;;;;;;;;;21.10;49.00;;;;;;5095359;28;1337;-66
2021/01/19 12:24:15;;;;;;;;;;;21.10;49.10;;;;;;5095188;28;1269;-67
2021/01/19 12:26:40;;;;;;;;;;;21.10;49.10;;;;;;5094198;28;1966;-67
2021/01/19 12:29:06;;;;;;;;;;;21.00;49.20;;;;;;5095218;28;1248;-67
2021/01/19 12:31:32;;;;;;;;;;;21.10;49.30;;;;;;5094118;28;1379;-67
2021/01/19 12:33:57;;;;;;;;;;;21.00;49.30;;;;;;5092698;28;988;-67
2021/01/19 12:36:23;;;;;;;;;;;21.00;49.40;;;;;;5093454;28;1317;-66
2021/01/19 12:38:48;;;;;;;;;;;21.00;49.40;;;;;;5095088;28;1268;-64
2021/01/19 12:41:14;;;;;;;;;;;21.00;49.50;;;;;;5094878;28;1324;-67
2021/01/19 12:43:40;;;;;;;;;;;21.00;49.60;;;;;;5094169;28;1355;-67
2021/01/19 12:46:05;;;;;;;;;;;20.90;49.60;;;;;;5093993;28;1959;-66
2021/01/19 12:48:31;;;;;;;;;;;20.90;49.70;;;;;;5094843;28;1286;-67
2021/01/19 12:50:57;;;;;;;;;;;20.90;49.80;;;;;;5094529;28;1272;-67
2021/01/19 12:53:22;;;;;;;;;;;20.90;49.90;;;;;;5095038;28;1376;-67
2021/01/19 12:55:48;;;;;;;;;;;20.90;49.90;;;;;;5094252;28;1441;-66
2021/01/19 12:58:13;;;;;;;;;;;20.80;50.00;;;;;;5094403;28;1149;-67
2021/01/19 13:00:38;;;;;;;;;;;20.80;50.00;;;;;;5094305;28;1300;-67
2021/01/19 13:03:04;;;;;;;;;;;20.80;50.10;;;;;;5094624;28;1283;-66
2021/01/19 13:05:29;;;;;;;;;;;20.80;50.20;;;;;;5093136;28;1953;-67
2021/01/19 13:07:55;;;;;;;;;;;20.80;50.20;;;;;;5094275;28;1279;-67
2021/01/19 13:10:20;;;;;;;;;;;20.80;50.30;;;;;;5093807;28;1278;-67
2021/01/19 13:12:46;;;;;;;;;;;20.80;50.40;;;;;;5094441;28;952;-67
2021/01/19 13:15:11;;;;;;;;;;;20.70;50.40;;;;;;5093654;28;1068;-67
2021/01/19 13:17:38;;;;;;;;;;;20.70;50.40;;;;;;5093549;28;1341;-68
2021/01/19 13:20:03;;;;;;;;;;;20.70;50.50;;;;;;5094044;28;1399;-68
2021/01/19 13:22:29;;;;;;;;;;;20.70;50.60;;;;;;5092063;28;1424;-68
2021/01/19 13:24:54;;;;;;;;;;;20.70;50.60;;;;;;5093647;28;1901;-69
2021/01/19 13:27:20;;;;;;;;;;;20.60;50.60;;;;;;5093354;28;1702;-68
2021/01/19 13:29:47;;;;;;;;;;;20.60;50.70;;;;;;5093513;28;1285;-69
2021/01/19 13:32:12;;;;;;;;;;;20.60;50.70;;;;;;5093724;28;1316;-69
2021/01/19 13:34:38;;;;;;;;;;;20.60;50.80;;;;;;5093050;28;1145;-68
2021/01/19 13:37:03;;;;;;;;;;;20.60;50.90;;;;;;5087894;28;1069;-68
2021/01/19 13:39:29;;;;;;;;;;;20.50;50.90;;;;;;5090457;28;1298;-69
2021/01/19 13:41:55;;;;;;;;;;;20.50;50.90;;;;;;5093929;28;1189;-68
2021/01/19 13:44:20;;;;;;;;;;;20.50;51.00;;;;;;5091641;28;1326;-68
2021/01/19 13:46:46;;;;;;;;;;;20.50;51.00;;;;;;5093541;28;1910;-69
2021/01/19 13:49:12;;;;;;;;;;;20.50;51.10;;;;;;5091899;28;1315;-69
2021/01/19 13:51:37;;;;;;;;;;;20.50;51.20;;;;;;5082357;28;1265;-68
2021/01/19 13:54:03;;;;;;;;;;;20.50;51.20;;;;;;5087317;28;1964;-71
2021/01/19 13:56:29;;;;;;;;;;;20.50;51.30;;;;;;5088870;28;933;-68
2021/01/19 13:58:58;;;;;;;;;;;20.40;51.30;;;;;;5071451;28;1487;-67
2021/01/19 14:01:23;;;;;;;;;;;20.40;51.40;;;;;;5084104;28;1274;-68
2021/01/19 14:03:49;;;;;;;;;;;20.40;52.00;;;;;;5092866;28;1242;-68
2021/01/19 14:06:14;;;;;;;;;;;20.40;51.50;;;;;;5092822;28;1905;-68
2021/01/19 14:08:40;;;;;;;;;;;20.40;51.50;;;;;;5091052;28;1363;-68
2021/01/19 14:11:05;;;;;;;;;;;20.40;51.60;;;;;;5093047;28;1274;-69
2021/01/19 14:13:31;;;;;;;;;;;20.30;51.60;;;;;;5087878;28;1889;-68
2021/01/19 14:15:57;;;;;;;;;;;20.30;51.60;;;;;;5077816;28;1919;-68
2021/01/19 14:18:22;;;;;;;;;;;20.30;51.70;;;;;;5084902;28;1483;-68
2021/01/19 14:20:48;;;;;;;;;;;20.30;51.70;;;;;;5093163;28;1337;-68
2021/01/19 14:23:13;;;;;;;;;;;20.30;51.80;;;;;;5093714;28;1320;-67
2021/01/19 14:25:39;;;;;;;;;;;20.30;51.80;;;;;;5093266;28;2288;-67
2021/01/19 14:28:05;;;;;;;;;;;20.20;51.80;;;;;;5093157;28;1043;-68
2021/01/19 14:30:30;;;;;;;;;;;20.20;51.90;;;;;;5092941;28;1272;-68